Time;durP1;ratioP1;P1;durP2;ratioP2;P2;SDS_P1;SDS_P2;PMS_P1;PMS_P2;Temp;Humidity;BMP_temperature;BMP_pressure;BME280_temperature;BME280_humidity;BME280_pressure;Samples;Min_cycle;Max_cycle;Signal;HPM_P1;HPM_P2
2022/09/28 00:01:45;;;;;;;17.80;13.90;;;;;;;12.09;91.02;98689.70;87046;1279;22529;-79
2022/09/28 00:03:53;;;;;;;16.90;15.00;;;;;;;12.09;90.96;98692.44;87090;1291;22500;-79
2022/09/28 00:06:04;;;;;;;17.80;15.10;;;;;;;12.10;91.04;98689.22;87056;1306;26577;-76
2022/09/28 00:08:10;;;;;;;17.20;14.80;;;;;;;12.10;90.98;98689.22;87070;1282;22513;-78
2022/09/28 00:10:15;;;;;;;16.80;14.80;;;;;;;12.12;91.20;98688.27;87063;1284;22474;-74
2022/09/28 00:12:21;;;;;;;15.40;13.80;;;;;;;12.14;91.28;98687.56;87007;1297;22510;-75
2022/09/28 00:14:27;;;;;;;15.20;13.50;;;;;;;12.16;91.46;98688.99;87003;1285;22945;-76
2022/09/28 00:16:34;;;;;;;18.00;13.50;;;;;;;12.17;91.39;98693.83;87082;1287;22466;-78
2022/09/28 00:18:40;;;;;;;15.30;13.70;;;;;;;12.19;91.22;98700.65;87069;1285;22477;-76
2022/09/28 00:20:46;;;;;;;13.90;12.50;;;;;;;12.19;91.48;98696.84;87076;1306;26467;-74
2022/09/28 00:22:51;;;;;;;12.70;11.40;;;;;;;12.20;91.31;98694.17;87076;1306;24532;-76
2022/09/28 00:24:57;;;;;;;13.80;12.20;;;;;;;12.19;91.29;98692.48;87068;1277;25766;-77
2022/09/28 00:27:03;;;;;;;15.90;11.20;;;;;;;12.19;91.35;98688.10;87088;1306;22473;-74
2022/09/28 00:29:12;;;;;;;13.10;11.50;;;;;;;12.16;91.23;98688.14;87053;1303;22608;-74
2022/09/28 00:31:18;;;;;;;11.60;10.50;;;;;;;12.14;91.22;98686.35;87068;1295;22469;-76
2022/09/28 00:33:23;;;;;;;10.40;9.50;;;;;;;12.13;91.35;98686.58;87045;1280;22473;-76
2022/09/28 00:35:29;;;;;;;9.70;7.70;;;;;;;12.12;91.36;98688.20;87080;1277;26154;-76
2022/09/28 00:37:35;;;;;;;6.80;6.10;;;;;;;12.10;91.10;98687.84;87082;1283;22492;-74
2022/09/28 00:39:41;;;;;;;5.90;5.40;;;;;;;12.06;91.03;98687.41;87043;1298;22462;-74
2022/09/28 00:41:46;;;;;;;5.20;4.70;;;;;;;12.04;90.89;98688.84;86986;1309;22870;-76
2022/09/28 00:43:52;;;;;;;4.60;4.20;;;;;;;11.99;90.59;98690.39;87103;1306;22441;-76
2022/09/28 00:46:01;;;;;;;5.60;3.50;;;;;;;11.95;90.67;98695.75;87067;1300;22475;-75
2022/09/28 00:48:09;;;;;;;4.30;3.60;;;;;;;11.90;90.51;98697.48;87040;1306;21828;-76
2022/09/28 00:50:22;;;;;;;4.00;3.60;;;;;;;11.86;90.39;98699.48;87048;1306;22461;-76
2022/09/28 00:52:29;;;;;;;5.30;3.80;;;;;;;11.83;90.56;98704.06;86997;1285;22762;-78
2022/09/28 00:54:35;;;;;;;3.70;3.20;;;;;;;11.79;90.44;98705.54;87039;1306;22881;-76
2022/09/28 00:56:41;;;;;;;3.70;3.40;;;;;;;11.75;90.33;98704.41;87080;1277;22507;-77
2022/09/28 00:58:48;;;;;;;3.80;3.50;;;;;;;11.72;90.39;98703.96;87053;1306;22460;-76
2022/09/28 01:00:53;;;;;;;6.30;3.70;;;;;;;11.68;90.29;98703.04;87051;1277;22470;-76
2022/09/28 01:02:59;;;;;;;3.50;2.90;;;;;;;11.65;90.34;98703.92;87069;1301;26512;-75
2022/09/28 01:05:09;;;;;;;3.50;3.20;;;;;;;11.60;90.32;98705.14;87076;1306;26460;-76
2022/09/28 01:07:14;;;;;;;4.20;2.90;;;;;;;11.57;90.43;98705.31;87052;1285;22481;-76
2022/09/28 01:09:20;;;;;;;3.80;3.30;;;;;;;11.55;90.42;98703.02;87041;1283;22474;-76
2022/09/28 01:11:26;;;;;;;4.10;3.10;;;;;;;11.51;90.33;98704.04;87053;1291;26423;-76
2022/09/28 01:13:31;;;;;;;3.80;2.60;;;;;;;11.47;90.55;98705.00;87057;1293;22473;-75
2022/09/28 01:15:41;;;;;;;5.60;3.10;;;;;;;11.45;90.39;98702.31;87061;1296;22467;-77
2022/09/28 01:18:00;;;;;;;5.60;3.20;;;;;;;11.43;90.51;98703.19;86911;1287;22496;-77
2022/09/28 01:20:42;;;;;;;3.30;3.00;;;;;;;11.39;90.64;98698.04;87042;1303;22468;-76
2022/09/28 01:23:27;;;;;;;3.40;3.10;;;;;;;11.37;90.79;98697.42;86997;1306;22488;-76
2022/09/28 01:25:40;;;;;;;3.30;3.10;;;;;;;11.37;91.10;98692.36;87108;1283;22471;-76
2022/09/28 01:27:50;;;;;;;5.30;3.30;;;;;;;11.36;91.07;98692.10;87080;1282;22501;-83
2022/09/28 01:30:00;;;;;;;4.60;3.50;;;;;;;11.35;91.00;98693.23;86997;1280;22765;-77
2022/09/28 01:32:16;;;;;;;3.00;2.70;;;;;;;11.35;91.22;98689.20;87061;1291;22515;-77
2022/09/28 01:34:28;;;;;;;3.20;2.90;;;;;;;11.36;91.24;98686.70;87083;1306;22420;-78
2022/09/28 01:36:36;;;;;;;3.30;3.00;;;;;;;11.35;91.04;98685.02;87086;1299;22463;-78
2022/09/28 01:38:44;;;;;;;4.80;2.50;;;;;;;11.34;91.11;98678.77;87074;1306;22475;-76
2022/09/28 01:40:49;;;;;;;4.60;2.70;;;;;;;11.32;91.02;98677.17;86948;1303;22659;-76
2022/09/28 01:42:58;;;;;;;3.10;2.40;;;;;;;11.30;90.92;98675.76;87045;1290;22469;-76
2022/09/28 01:45:06;;;;;;;2.80;2.20;;;;;;;11.28;90.92;98679.75;87091;1306;24875;-76
2022/09/28 01:47:15;;;;;;;3.70;2.40;;;;;;;11.27;91.20;98675.41;87056;1304;22480;-75
2022/09/28 01:49:22;;;;;;;3.50;1.60;;;;;;;11.26;91.18;98673.55;87085;1285;22448;-74
2022/09/28 01:51:33;;;;;;;2.00;1.70;;;;;;;11.23;91.02;98675.16;86981;1295;22513;-75
2022/09/28 01:53:42;;;;;;;2.00;1.70;;;;;;;11.20;90.96;98668.05;87065;1277;22585;-76
2022/09/28 01:55:50;;;;;;;3.60;1.60;;;;;;;11.18;90.87;98667.34;87053;1299;26562;-75
2022/09/28 01:58:00;;;;;;;3.20;2.00;;;;;;;11.16;90.95;98665.02;87045;1291;22509;-75
2022/09/28 02:00:08;;;;;;;;;;;;;;;11.15;91.08;98661.63;86995;1307;22434;-75
2022/09/28 02:02:17;;;;;;;2.30;2.00;;;;;;;11.08;90.86;98665.86;86940;1290;25281;-75
2022/09/28 02:04:26;;;;;;;2.50;2.00;;;;;;;11.04;91.00;98669.70;87056;1287;22517;-74
2022/09/28 02:06:36;;;;;;;3.70;2.60;;;;;;;11.02;91.16;98668.21;87029;1285;22648;-76
2022/09/28 02:08:42;;;;;;;;;;;;;;;11.01;91.04;98667.11;87093;1306;22437;-76
2022/09/28 02:10:51;;;;;;;2.10;1.90;;;;;;;10.96;91.31;98671.92;87038;1306;24281;-78
2022/09/28 02:12:58;;;;;;;2.30;1.70;;;;;;;10.97;91.39;98677.10;86931;1277;25937;-78
2022/09/28 02:15:11;;;;;;;2.70;2.20;;;;;;;10.97;91.59;98681.29;87059;1306;22794;-77
2022/09/28 02:17:17;;;;;;;3.40;2.00;;;;;;;10.96;91.83;98679.41;87069;1278;24266;-77
2022/09/28 02:19:24;;;;;;;6.00;1.70;;;;;;;10.96;91.84;98683.81;87046;1299;22467;-76
2022/09/28 02:21:37;;;;;;;2.30;1.90;;;;;;;10.96;91.92;98683.09;87076;1291;22482;-75
2022/09/28 02:23:47;;;;;;;2.10;1.90;;;;;;;10.96;91.95;98682.95;87025;1307;24299;-77
2022/09/28 02:25:55;;;;;;;1.90;1.80;;;;;;;10.96;91.88;98686.80;86933;1287;22495;-76
2022/09/28 02:28:07;;;;;;;2.30;2.10;;;;;;;10.94;91.77;98686.05;87052;1305;22464;-75
2022/09/28 02:30:13;;;;;;;4.30;2.50;;;;;;;10.92;92.09;98686.85;86906;1296;22501;-75
2022/09/28 02:32:19;;;;;;;2.50;2.10;;;;;;;10.94;92.07;98686.58;87087;1306;24242;-76
2022/09/28 02:34:24;;;;;;;3.50;2.40;;;;;;;10.92;91.98;98686.66;87074;1298;22472;-74
2022/09/28 02:36:30;;;;;;;3.00;2.70;;;;;;;10.92;92.03;98685.46;86889;1309;22519;-76
2022/09/28 02:38:36;;;;;;;3.50;1.90;;;;;;;10.92;92.15;98683.02;87065;1284;25256;-77
2022/09/28 02:40:42;;;;;;;6.30;2.60;;;;;;;10.93;92.11;98685.38;87101;1287;22470;-78
2022/09/28 02:42:58;;;;;;;4.00;2.60;;;;;;;10.93;92.12;98686.26;86988;1309;22505;-78
2022/09/28 02:45:13;;;;;;;3.10;2.80;;;;;;;10.93;92.20;98684.52;86920;1294;24100;-75
2022/09/28 02:47:26;;;;;;;2.80;2.60;;;;;;;10.94;92.27;98681.88;87053;1278;23744;-76
2022/09/28 02:49:39;;;;;;;5.40;2.50;;;;;;;10.94;92.16;98675.05;87089;1306;25736;-77
2022/09/28 02:51:53;;;;;;;3.30;3.00;;;;;;;10.94;92.30;98673.98;87069;1280;22728;-78
2022/09/28 02:54:16;;;;;;;5.40;3.40;;;;;;;10.94;92.53;98673.80;87082;1306;22508;-77
2022/09/28 02:56:38;;;;;;;3.70;3.30;;;;;;;10.94;92.32;98676.27;87043;1290;22466;-78
2022/09/28 02:58:48;;;;;;;5.20;3.10;;;;;;;10.94;92.48;98674.84;87076;1290;22456;-78
2022/09/28 03:00:59;;;;;;;3.10;2.50;;;;;;;10.93;92.44;98675.45;87089;1281;22478;-77
2022/09/28 03:03:11;;;;;;;3.40;3.10;;;;;;;10.92;92.62;98673.05;86951;1298;22474;-76
2022/09/28 03:05:20;;;;;;;3.90;3.50;;;;;;;10.92;92.50;98675.34;87061;1290;22459;-78
2022/09/28 03:07:28;;;;;;;4.60;4.20;;;;;;;10.94;92.68;98676.61;87058;1290;22482;-76
2022/09/28 03:09:39;;;;;;;4.00;3.70;;;;;;;10.94;92.55;98679.23;87051;1306;22487;-77
2022/09/28 03:11:48;;;;;;;3.90;3.50;;;;;;;10.92;92.59;98674.65;87081;1305;22501;-78
2022/09/28 03:13:53;;;;;;;4.80;4.40;;;;;;;10.92;92.71;98676.59;86936;1277;22487;-77
2022/09/28 03:16:10;;;;;;;3.90;3.60;;;;;;;10.91;92.71;98676.28;87033;1306;22488;-76
2022/09/28 03:18:16;;;;;;;4.70;4.20;;;;;;;10.91;92.78;98675.95;87081;1306;22527;-78
2022/09/28 03:20:22;;;;;;;5.00;4.60;;;;;;;10.91;92.80;98677.70;86991;1299;22479;-78
2022/09/28 03:22:28;;;;;;;5.00;4.50;;;;;;;10.90;92.75;98676.75;86990;1309;26538;-77
2022/09/28 03:24:35;;;;;;;4.80;4.30;;;;;;;10.89;92.74;98676.24;87005;1301;22490;-77
2022/09/28 03:26:40;;;;;;;5.80;4.70;;;;;;;10.87;92.87;98674.10;87049;1290;22475;-77
2022/09/28 03:28:46;;;;;;;5.40;4.90;;;;;;;10.88;92.94;98673.03;87025;1293;24309;-78
2022/09/28 03:30:52;;;;;;;10.20;5.20;;;;;;;10.86;92.87;98675.75;87080;1291;22588;-78
2022/09/28 03:33:01;;;;;;;5.80;4.70;;;;;;;10.86;93.03;98675.23;86910;1309;22558;-77
2022/09/28 03:35:10;;;;;;;4.90;4.20;;;;;;;10.86;93.11;98674.70;87074;1306;22463;-77
2022/09/28 03:37:18;;;;;;;5.80;4.00;;;;;;;10.87;93.19;98676.55;87085;1289;22489;-77
2022/09/28 03:39:23;;;;;;;4.60;4.20;;;;;;;10.89;93.43;98678.54;87080;1277;22479;-76
2022/09/28 03:41:29;;;;;;;4.90;4.40;;;;;;;10.90;93.61;98682.84;87044;1305;24281;-80
2022/09/28 03:43:34;;;;;;;5.80;5.10;;;;;;;10.92;93.46;98681.29;87075;1306;22488;-78
2022/09/28 03:45:40;;;;;;;9.90;5.80;;;;;;;10.91;93.54;98682.35;86905;1285;22740;-77
2022/09/28 03:47:48;;;;;;;6.00;5.10;;;;;;;10.93;93.67;98683.33;87071;1306;22473;-77
2022/09/28 03:49:56;;;;;;;6.00;5.50;;;;;;;10.92;93.55;98679.36;87072;1284;22476;-77
2022/09/28 03:52:02;;;;;;;6.00;5.20;;;;;;;10.93;93.74;98677.71;87058;1306;22463;-77
2022/09/28 03:54:08;;;;;;;6.90;6.20;;;;;;;10.93;93.97;98678.27;86902;1309;22519;-78
2022/09/28 03:56:15;;;;;;;8.00;7.10;;;;;;;10.93;93.77;98675.98;87105;1290;22486;-77
2022/09/28 03:58:20;;;;;;;8.40;6.20;;;;;;;10.93;93.88;98678.78;87049;1285;26582;-77
2022/09/28 04:00:26;;;;;;;8.70;7.80;;;;;;;10.94;94.00;98676.63;87045;1292;22451;-76
2022/09/28 04:02:33;;;;;;;8.80;8.00;;;;;;;10.94;94.10;98680.83;86994;1293;22454;-74
2022/09/28 04:04:38;;;;;;;9.80;8.20;;;;;;;10.93;93.87;98681.04;87059;1306;22476;-75
2022/09/28 04:06:47;;;;;;;10.10;9.00;;;;;;;10.93;93.92;98682.65;87066;1285;22463;-77
2022/09/28 04:08:52;;;;;;;10.10;8.80;;;;;;;10.93;93.96;98684.73;86974;1291;22498;-78
2022/09/28 04:10:58;;;;;;;9.40;8.10;;;;;;;10.93;94.05;98684.73;86987;1284;22472;-76
2022/09/28 04:13:04;;;;;;;9.50;8.60;;;;;;;10.91;93.91;98685.17;87090;1306;22571;-77
2022/09/28 04:15:12;;;;;;;9.00;8.10;;;;;;;10.90;94.05;98685.63;87022;1296;22482;-78
2022/09/28 04:17:18;;;;;;;10.20;9.20;;;;;;;10.89;94.02;98685.51;87050;1283;24315;-77
2022/09/28 04:19:26;;;;;;;10.80;9.60;;;;;;;10.89;93.98;98687.93;87096;1306;22918;-78
2022/09/28 04:21:32;;;;;;;10.50;9.50;;;;;;;10.89;93.98;98690.56;87068;1277;22507;-76
2022/09/28 04:23:39;;;;;;;10.60;8.80;;;;;;;10.87;93.81;98684.73;87054;1301;25733;-78
2022/09/28 04:25:47;;;;;;;10.70;9.70;;;;;;;10.85;93.80;98685.95;87047;1291;22804;-77
2022/09/28 04:30:20;;;;;;;11.70;10.40;;;;;;;10.82;93.98;98692.06;87096;1280;22462;-78
2022/09/28 04:32:26;;;;;;;13.00;11.20;;;;;;;10.83;94.05;98690.77;87075;1296;22500;-78
2022/09/28 04:34:32;;;;;;;12.40;10.70;;;;;;;10.83;94.02;98688.33;86911;1309;24362;-78
2022/09/28 04:36:38;;;;;;;12.20;10.40;;;;;;;10.81;93.79;98682.83;87084;1306;22485;-78
2022/09/28 04:38:45;;;;;;;13.30;10.60;;;;;;;10.79;93.81;98685.44;87070;1306;22923;-77
2022/09/28 04:40:51;;;;;;;11.40;10.30;;;;;;;10.79;93.79;98683.04;87032;1285;22462;-80
2022/09/28 04:42:57;;;;;;;12.00;10.80;;;;;;;10.77;93.74;98681.55;87052;1290;22459;-76
2022/09/28 04:45:04;;;;;;;13.10;11.50;;;;;;;10.75;93.74;98682.06;87072;1297;22482;-79
2022/09/28 04:47:09;;;;;;;12.60;10.60;;;;;;;10.74;93.75;98681.26;87036;1301;22456;-78
2022/09/28 04:49:16;;;;;;;15.70;10.70;;;;;;;10.73;93.75;98688.78;87065;1306;22882;-79
2022/09/28 04:51:21;;;;;;;11.20;10.20;;;;;;;10.73;93.82;98686.38;87059;1302;22465;-78
2022/09/28 04:53:27;;;;;;;14.00;10.10;;;;;;;10.72;93.78;98687.48;87053;1292;22501;-78
2022/09/28 04:55:33;;;;;;;11.70;10.50;;;;;;;10.72;93.79;98695.02;87155;1261;22458;-78
2022/09/28 04:57:39;;;;;;;11.10;10.10;;;;;;;10.72;93.82;98692.16;87180;1282;26479;-76
2022/09/28 04:59:45;;;;;;;10.50;9.50;;;;;;;10.72;93.72;98690.27;87069;1275;22608;-78
2022/09/28 05:01:53;;;;;;;11.00;9.90;;;;;;;10.71;93.66;98690.17;87224;1306;22488;-78
2022/09/28 05:04:05;;;;;;;10.40;9.50;;;;;;;10.68;93.44;98685.84;87182;1306;22464;-78
2022/09/28 05:06:14;;;;;;;12.50;10.80;;;;;;;10.67;93.68;98685.72;87233;1283;22495;-78
2022/09/28 05:08:20;;;;;;;10.80;9.70;;;;;;;10.66;93.55;98691.33;87235;1294;22467;-78
2022/09/28 05:10:27;;;;;;;10.80;9.70;;;;;;;10.66;93.68;98694.30;87167;1306;22453;-79
2022/09/28 05:12:38;;;;;;;10.80;9.50;;;;;;;10.66;93.58;98692.61;86808;1306;546223;-78
2022/09/28 05:14:47;;;;;;;10.90;9.80;;;;;;;10.67;93.67;98695.83;87209;1277;22494;-79
2022/09/28 05:16:53;;;;;;;11.10;10.00;;;;;;;10.68;93.73;98697.02;87254;1283;22468;-78
2022/09/28 05:18:59;;;;;;;11.10;10.00;;;;;;;10.68;93.55;98695.73;87202;1300;25270;-77
2022/09/28 05:21:07;;;;;;;12.40;9.90;;;;;;;10.68;93.26;98698.38;87228;1305;22461;-77
2022/09/28 05:23:15;;;;;;;10.30;9.20;;;;;;;10.69;93.51;98698.67;87074;1282;22507;-76
2022/09/28 05:25:21;;;;;;;10.60;9.70;;;;;;;10.69;93.44;98698.65;87232;1282;24359;-76
2022/09/28 05:27:27;;;;;;;10.60;9.60;;;;;;;10.71;93.38;98698.90;87123;1306;22472;-77
2022/09/28 05:29:33;;;;;;;11.20;9.60;;;;;;;10.72;93.40;98696.02;87139;1306;23757;-77
2022/09/28 05:31:38;;;;;;;10.90;9.80;;;;;;;10.71;93.11;98700.95;87147;1304;22457;-77
2022/09/28 05:33:45;;;;;;;10.70;9.70;;;;;;;10.73;93.27;98702.42;87166;1306;22761;-77
2022/09/28 05:35:50;;;;;;;10.50;9.40;;;;;;;10.72;93.03;98702.16;87181;1282;22522;-76
2022/09/28 05:38:02;;;;;;;9.90;9.00;;;;;;;10.71;92.94;98710.38;87227;1306;22459;-76
2022/09/28 05:40:11;;;;;;;10.20;9.10;;;;;;;10.73;93.10;98709.73;87214;1289;24360;-78
2022/09/28 05:42:16;;;;;;;10.00;9.10;;;;;;;10.74;93.11;98708.61;87207;1296;24377;-77
2022/09/28 05:44:22;;;;;;;10.80;9.70;;;;;;;10.75;92.90;98708.20;87205;1294;22577;-78
2022/09/28 05:46:27;;;;;;;10.20;9.30;;;;;;;10.75;92.96;98706.46;87198;1294;22453;-78
2022/09/28 05:48:33;;;;;;;9.80;8.80;;;;;;;10.74;92.77;98705.47;87179;1278;22685;-78
2022/09/28 05:50:39;;;;;;;10.90;9.90;;;;;;;10.74;92.63;98707.77;87093;1306;22514;-78
2022/09/28 05:52:46;;;;;;;9.50;8.80;;;;;;;10.73;92.63;98710.78;87171;1306;22475;-78
2022/09/28 05:54:52;;;;;;;10.50;9.50;;;;;;;10.72;92.53;98711.39;87221;1283;22472;-77
2022/09/28 05:56:58;;;;;;;12.80;9.50;;;;;;;10.73;92.76;98712.73;87188;1285;22515;-78
2022/09/28 05:59:05;;;;;;;10.00;9.10;;;;;;;10.74;92.81;98718.39;87201;1306;23863;-77
2022/09/28 06:01:10;;;;;;;10.10;9.20;;;;;;;10.74;92.65;98718.73;87239;1290;24417;-78
2022/09/28 06:03:16;;;;;;;11.10;9.40;;;;;;;10.75;92.57;98719.93;87217;1305;26264;-76
2022/09/28 06:05:21;;;;;;;10.00;9.10;;;;;;;10.75;92.65;98721.46;87176;1277;22524;-77
2022/09/28 06:07:27;;;;;;;9.50;8.60;;;;;;;10.78;92.49;98719.88;87188;1306;24262;-76
2022/09/28 06:09:33;;;;;;;9.90;9.10;;;;;;;10.80;92.29;98722.21;87170;1298;25256;-75
2022/09/28 06:11:38;;;;;;;11.40;10.00;;;;;;;10.81;92.44;98725.23;87197;1298;22463;-77
2022/09/28 06:13:44;;;;;;;11.70;10.50;;;;;;;10.83;92.48;98723.40;87146;1298;22485;-76
2022/09/28 06:15:50;;;;;;;12.00;10.50;;;;;;;10.88;92.84;98725.35;87206;1285;22449;-78
2022/09/28 06:17:59;;;;;;;11.60;10.50;;;;;;;10.93;92.77;98727.29;87241;1285;25377;-77
2022/09/28 06:20:05;;;;;;;11.60;10.50;;;;;;;10.94;92.35;98723.56;87221;1306;23727;-77
2022/09/28 06:22:11;;;;;;;11.90;10.40;;;;;;;10.96;92.53;98725.54;87222;1298;22448;-78
2022/09/28 06:24:17;;;;;;;11.20;10.10;;;;;;;10.99;92.30;98720.08;87201;1306;22447;-78
2022/09/28 06:26:23;;;;;;;13.20;11.30;;;;;;;11.02;92.49;98722.63;87180;1277;23751;-74
2022/09/28 06:28:28;;;;;;;11.30;10.20;;;;;;;11.07;92.48;98724.73;87179;1290;22461;-76
2022/09/28 06:30:37;;;;;;;11.60;10.40;;;;;;;11.11;92.32;98725.73;87166;1284;22486;-74
2022/09/28 06:32:43;;;;;;;11.10;10.00;;;;;;;11.14;92.12;98724.86;87147;1278;26571;-75
2022/09/28 06:34:50;;;;;;;11.70;10.40;;;;;;;11.16;92.02;98727.31;87230;1284;22462;-77
2022/09/28 06:36:55;;;;;;;11.10;10.00;;;;;;;11.18;91.92;98727.87;87144;1306;22460;-72
2022/09/28 06:39:01;;;;;;;11.70;10.20;;;;;;;11.19;91.66;98727.63;87087;1277;22455;-72
2022/09/28 06:41:06;;;;;;;11.80;10.60;;;;;;;11.22;91.52;98724.80;87226;1304;22459;-77
2022/09/28 06:43:14;;;;;;;10.20;9.30;;;;;;;11.27;91.40;98724.80;87237;1282;22467;-79
2022/09/28 06:45:23;;;;;;;12.40;10.60;;;;;;;11.35;91.40;98728.12;87221;1302;22877;-79
2022/09/28 06:47:29;;;;;;;10.20;9.20;;;;;;;11.46;91.30;98726.39;87189;1290;22546;-76
2022/09/28 06:49:35;;;;;;;11.30;10.20;;;;;;;11.56;91.48;98730.73;87224;1285;22510;-78
2022/09/28 06:51:41;;;;;;;10.60;9.60;;;;;;;11.64;91.03;98733.48;87202;1298;25508;-79
2022/09/28 06:53:47;;;;;;;11.50;9.70;;;;;;;11.71;90.96;98734.74;87249;1289;22468;-78
2022/09/28 06:55:52;;;;;;;10.80;9.80;;;;;;;11.76;90.55;98731.96;87176;1275;22478;-78
2022/09/28 06:58:01;;;;;;;10.40;9.30;;;;;;;11.83;90.55;98732.57;87222;1289;22450;-77
2022/09/28 07:00:10;;;;;;;11.10;9.90;;;;;;;11.90;90.15;98733.48;87175;1304;22495;-80
2022/09/28 07:02:18;;;;;;;11.40;9.50;;;;;;;11.97;90.33;98733.55;87150;1284;22472;-79
2022/09/28 07:04:23;;;;;;;13.60;9.30;;;;;;;12.05;90.31;98735.89;87064;1310;22621;-79
2022/09/28 07:06:30;;;;;;;10.40;9.40;;;;;;;12.15;90.31;98737.86;87124;1289;22451;-80
2022/09/28 07:08:36;;;;;;;12.40;10.40;;;;;;;12.23;90.15;98743.61;87173;1306;22506;-80
2022/09/28 07:10:43;;;;;;;9.90;8.70;;;;;;;12.26;89.18;98746.48;87134;1298;22477;-79
2022/09/28 07:12:49;;;;;;;11.20;9.80;;;;;;;12.31;88.72;98750.87;87178;1306;22523;-80
2022/09/28 07:14:56;;;;;;;11.00;9.90;;;;;;;12.38;89.23;98750.38;87204;1306;22457;-80
2022/09/28 07:17:02;;;;;;;13.40;10.00;;;;;;;12.43;88.53;98751.63;87169;1277;26442;-80
2022/09/28 07:19:08;;;;;;;11.70;10.50;;;;;;;12.44;88.48;98754.36;87149;1285;22474;-80
2022/09/28 07:21:14;;;;;;;10.70;9.80;;;;;;;12.47;88.83;98747.95;87172;1290;22486;-80
2022/09/28 07:23:19;;;;;;;12.10;10.90;;;;;;;12.55;88.98;98750.40;87162;1298;25441;-77
2022/09/28 07:25:25;;;;;;;10.70;9.70;;;;;;;12.62;88.86;98751.73;87204;1298;22465;-77
2022/09/28 07:27:31;;;;;;;11.20;10.10;;;;;;;12.71;88.04;98755.56;87023;1290;24235;-79
2022/09/28 07:29:36;;;;;;;11.00;9.90;;;;;;;12.76;87.28;98751.52;87122;1306;22464;-79
2022/09/28 07:31:42;;;;;;;9.90;8.80;;;;;;;12.76;86.71;98755.49;87168;1306;22479;-79
2022/09/28 07:33:50;;;;;;;10.30;9.10;;;;;;;12.74;86.10;98756.33;87147;1304;24868;-79
2022/09/28 07:35:56;;;;;;;8.20;7.50;;;;;;;12.77;85.87;98753.16;87173;1306;25547;-80
2022/09/28 07:38:02;;;;;;;10.50;9.10;;;;;;;12.85;86.08;98751.66;87201;1306;22457;-80
2022/09/28 07:42:35;;;;;;;8.70;7.80;;;;;;;13.15;86.24;98759.64;87114;1304;22468;-80
2022/09/28 07:44:40;;;;;;;10.00;7.90;;;;;;;13.21;85.80;98758.66;87162;1305;24339;-79
2022/09/28 07:46:46;;;;;;;9.90;8.60;;;;;;;13.24;85.20;98759.15;87119;1298;22476;-77
2022/09/28 07:48:51;;;;;;;8.80;8.10;;;;;;;13.25;84.82;98761.40;87153;1294;22482;-79
2022/09/28 07:50:58;;;;;;;10.80;8.70;;;;;;;13.26;83.97;98760.63;87102;1306;22461;-79
2022/09/28 07:53:04;;;;;;;8.80;8.00;;;;;;;13.25;83.35;98766.99;87161;1306;24336;-80
2022/09/28 07:55:10;;;;;;;9.80;8.90;;;;;;;13.22;83.41;98769.70;87054;1285;25238;-78
2022/09/28 07:57:16;;;;;;;10.60;9.70;;;;;;;13.20;83.37;98772.92;87169;1306;23798;-80
2022/09/28 07:59:21;;;;;;;10.20;9.30;;;;;;;13.21;83.52;98773.73;87141;1300;22462;-86
2022/09/28 08:01:29;;;;;;;9.40;8.60;;;;;;;13.22;83.13;98776.52;87153;1294;22732;-79
2022/09/28 08:03:35;;;;;;;10.40;7.80;;;;;;;13.23;82.86;98780.65;87148;1306;22975;-80
2022/09/28 08:05:41;;;;;;;8.00;7.30;;;;;;;13.29;82.06;98778.41;87164;1295;22531;-77
2022/09/28 08:07:47;;;;;;;7.00;6.30;;;;;;;13.31;81.74;98783.50;87140;1306;22476;-78
2022/09/28 08:09:53;;;;;;;8.50;7.80;;;;;;;13.31;81.47;98783.05;87158;1306;22481;-79
2022/09/28 08:11:59;;;;;;;9.80;7.50;;;;;;;13.37;82.20;98784.68;87145;1290;22468;-79
2022/09/28 08:14:04;;;;;;;8.80;7.00;;;;;;;13.49;82.47;98780.98;87131;1305;25632;-80
2022/09/28 08:16:10;;;;;;;7.80;7.20;;;;;;;13.56;82.19;98785.02;87128;1305;26508;-78
2022/09/28 08:18:16;;;;;;;7.50;6.70;;;;;;;13.58;81.51;98783.40;87139;1297;24041;-79
2022/09/28 08:22:45;;;;;;;8.30;7.50;;;;;;;13.52;81.33;98787.40;87128;1304;22506;-78
2022/09/28 08:24:52;;;;;;;7.30;6.80;;;;;;;13.52;81.44;98786.50;87127;1297;22484;-78
2022/09/28 08:26:58;;;;;;;8.40;7.60;;;;;;;13.53;81.15;98787.86;87187;1305;23728;-76
2022/09/28 08:29:03;;;;;;;7.80;6.90;;;;;;;13.51;80.70;98790.10;87127;1290;22462;-78
2022/09/28 08:31:09;;;;;;;7.90;7.10;;;;;;;13.48;80.65;98786.63;87168;1306;22475;-87
2022/09/28 08:33:16;;;;;;;6.90;6.20;;;;;;;13.45;80.39;98790.70;87117;1304;22469;-79
2022/09/28 08:35:25;;;;;;;7.40;6.80;;;;;;;13.43;79.89;98795.42;87188;1305;22594;-79
2022/09/28 08:37:30;;;;;;;10.90;6.70;;;;;;;13.39;79.27;98795.02;87084;1297;22470;-79
2022/09/28 08:39:36;;;;;;;6.40;5.80;;;;;;;13.33;79.39;98795.59;87113;1295;22475;-79
2022/09/28 08:41:44;;;;;;;6.20;5.70;;;;;;;13.36;79.97;98794.14;87125;1287;22495;-79
2022/09/28 08:44:07;;;;;;;7.10;5.60;;;;;;;13.58;80.37;98788.55;87147;1306;22465;-78
2022/09/28 08:46:14;;;;;;;11.00;6.80;;;;;;;14.02;80.87;98781.43;87149;1283;22460;-79
2022/09/28 08:50:51;;;;;;;6.50;6.00;;;;;;;14.80;79.93;98779.19;87136;1297;22626;-79
2022/09/28 08:52:58;;;;;;;6.40;5.50;;;;;;;15.12;79.01;98780.09;87120;1309;25439;-78
2022/09/28 08:55:09;;;;;;;4.70;4.30;;;;;;;15.27;77.68;98775.67;87107;1307;22650;-79
2022/09/28 08:57:17;;;;;;;7.80;5.30;;;;;;;15.33;76.05;98781.54;87097;1291;22454;-79
2022/09/28 08:59:24;;;;;;;6.00;5.50;;;;;;;15.39;75.48;98780.77;87083;1284;22485;-77
2022/09/28 09:01:36;;;;;;;6.50;4.90;;;;;;;15.54;75.30;98782.55;87130;1284;22868;-77
2022/09/28 09:03:43;;;;;;;5.90;5.30;;;;;;;15.73;74.71;98774.29;87145;1307;22445;-78
2022/09/28 09:05:59;;;;;;;5.20;4.60;;;;;;;15.81;73.46;98778.37;87019;1299;22675;-79
2022/09/28 09:08:15;;;;;;;4.90;4.50;;;;;;;15.72;73.10;98780.20;87126;1289;24844;-79
2022/09/28 09:10:47;;;;;;;5.40;4.40;;;;;;;15.71;72.89;98783.81;87150;1307;22464;-77
2022/09/28 09:12:59;;;;;;;4.90;4.30;;;;;;;15.67;72.91;98780.92;87107;1296;22555;-79
2022/09/28 09:15:33;;;;;;;4.80;4.40;;;;;;;15.64;72.97;98782.64;87136;1307;26462;-80
2022/09/28 09:17:48;;;;;;;5.40;4.80;;;;;;;15.58;73.35;98777.84;87121;1303;22549;-79
2022/09/28 09:19:58;;;;;;;5.80;4.70;;;;;;;15.60;73.30;98776.75;87158;1310;23681;-79
2022/09/28 09:22:12;;;;;;;3.70;3.40;;;;;;;15.78;74.34;98777.34;87125;1295;22474;-78
2022/09/28 09:24:26;;;;;;;4.30;3.90;;;;;;;16.46;74.97;98776.45;87140;1295;24268;-77
2022/09/28 09:26:35;;;;;;;4.10;3.70;;;;;;;17.26;72.95;98779.02;87159;1293;25221;-78
2022/09/28 09:28:50;;;;;;;;;;;;;;;17.79;71.79;98776.77;87156;1297;22743;-78
2022/09/28 09:31:05;;;;;;;3.40;3.10;;;;;;;18.31;70.70;98772.73;87138;1287;22780;-77
2022/09/28 09:33:42;;;;;;;7.30;3.00;;;;;;;18.58;68.50;98772.25;87118;1306;22454;-78
2022/09/28 09:36:03;;;;;;;5.10;3.70;;;;;;;18.49;65.28;98776.88;87031;1309;22569;-79
2022/09/28 09:38:27;;;;;;;7.60;3.70;;;;;;;18.28;64.46;98778.33;87109;1309;22516;-77
2022/09/28 09:40:45;;;;;;;3.70;3.10;;;;;;;17.90;64.29;98781.40;87152;1307;23709;-79
2022/09/28 09:43:04;;;;;;;7.70;3.90;;;;;;;17.62;64.40;98782.55;87125;1289;22512;-85
2022/09/28 09:45:32;;;;;;;2.90;2.40;;;;;;;17.53;65.18;98782.16;87125;1310;22462;-76
2022/09/28 09:47:40;;;;;;;3.20;2.90;;;;;;;17.44;65.20;98789.87;87156;1306;22474;-78
2022/09/28 09:49:49;;;;;;;4.10;2.60;;;;;;;17.37;64.71;98791.40;87095;1289;22475;-79
2022/09/28 09:51:58;;;;;;;3.20;2.90;;;;;;;17.22;64.72;98792.90;87152;1297;22934;-76
2022/09/28 09:54:09;;;;;;;3.50;2.60;;;;;;;17.23;65.73;98791.65;87148;1306;22457;-78
2022/09/28 09:56:16;;;;;;;2.60;2.40;;;;;;;17.34;66.29;98794.48;87153;1303;22464;-73
2022/09/28 09:58:24;;;;;;;3.50;2.50;;;;;;;17.49;66.26;98791.49;87036;1306;22475;-77
2022/09/28 10:00:30;;;;;;;3.00;2.80;;;;;;;17.64;66.17;98794.02;87140;1305;23245;-77
2022/09/28 10:02:36;;;;;;;4.70;3.30;;;;;;;17.72;65.27;98794.71;87142;1305;22486;-79
2022/09/28 10:04:45;;;;;;;3.60;3.10;;;;;;;17.73;63.57;98794.64;87087;1306;22503;-78
2022/09/28 10:06:52;;;;;;;5.40;2.80;;;;;;;17.70;63.92;98796.13;87142;1306;22760;-78
2022/09/28 10:09:03;;;;;;;4.20;2.90;;;;;;;17.68;62.56;98794.85;87143;1306;22508;-77
2022/09/28 10:11:12;;;;;;;6.30;3.60;;;;;;;17.63;62.82;98795.71;87201;1287;22466;-78